Time;durP1;ratioP1;P1;durP2;ratioP2;P2;SDS_P1;SDS_P2;PMS_P1;PMS_P2;Temp;Humidity;BMP_temperature;BMP_pressure;BME280_temperature;BME280_humidity;BME280_pressure;Samples;Min_cycle;Max_cycle;Signal;HPM_P1;HPM_P2
2021/12/26 00:00:13;;;;;;;4.00;1.15;;;-6.90;94.00;;;;;;4229607;28;20048;-84
2021/12/26 00:02:17;;;;;;;3.25;1.30;;;-7.00;94.10;;;;;;4234355;28;20028;-85
2021/12/26 00:04:26;;;;;;;4.18;1.30;;;-7.10;94.10;;;;;;4251450;28;20084;-85
2021/12/26 00:06:36;;;;;;;3.13;1.48;;;-5.00;94.10;;;;;;4229487;28;20138;-85
2021/12/26 00:08:42;;;;;;;3.63;1.20;;;-4.40;95.00;;;;;;4228950;28;20082;-85
2021/12/26 00:10:50;;;;;;;3.33;1.48;;;-5.80;93.90;;;;;;4227421;28;20074;-85
2021/12/26 00:12:55;;;;;;;1.92;1.30;;;-5.30;94.30;;;;;;4245604;28;20040;-85
2021/12/26 00:15:01;;;;;;;2.42;1.17;;;-5.80;94.00;;;;;;4243496;28;20058;-86
2021/12/26 00:17:05;;;;;;;2.50;1.40;;;-4.70;94.10;;;;;;4230077;28;20048;-85
2021/12/26 00:19:10;;;;;;;4.90;1.33;;;-5.90;93.90;;;;;;4230743;28;20040;-85
2021/12/26 00:21:23;;;;;;;7.80;1.67;;;-5.30;94.10;;;;;;4229597;28;20097;-85
2021/12/26 00:23:44;;;;;;;5.30;1.40;;;-6.00;94.10;;;;;;4247723;28;20043;-84
2021/12/26 00:25:57;;;;;;;4.85;1.52;;;-6.60;93.80;;;;;;4231151;28;20067;-84
2021/12/26 00:28:09;;;;;;;2.30;1.33;;;-6.00;94.00;;;;;;4247177;28;20084;-85
2021/12/26 00:30:21;;;;;;;3.80;1.60;;;-7.10;93.70;;;;;;4230044;28;20040;-85
2021/12/26 00:32:37;;;;;;;3.65;1.45;;;-6.00;93.90;;;;;;4230507;28;20047;-85
2021/12/26 00:34:39;;;;;;;3.25;1.30;;;-6.00;94.00;;;;;;4228441;28;20076;-85
2021/12/26 00:36:48;;;;;;;5.30;1.40;;;-5.70;94.40;;;;;;4229807;28;20048;-85
2021/12/26 00:38:53;;;;;;;7.97;1.38;;;-6.10;93.90;;;;;;4230142;28;20052;-85
2021/12/26 00:41:02;;;;;;;4.38;1.33;;;-6.00;93.90;;;;;;4229924;28;20122;-85
2021/12/26 00:43:04;;;;;;;2.95;1.27;;;-6.00;93.80;;;;;;4247989;28;20035;-84
2021/12/26 00:45:07;;;;;;;3.22;1.45;;;-6.10;94.60;;;;;;4227156;28;20051;-84
2021/12/26 00:47:12;;;;;;;6.68;1.50;;;-6.00;94.00;;;;;;4246267;28;20048;-84
2021/12/26 00:49:14;;;;;;;3.47;1.23;;;-6.10;93.90;;;;;;4228227;28;20480;-84
2021/12/26 00:51:18;;;;;;;2.13;0.98;;;-6.20;93.90;;;;;;4246017;28;20036;-84
2021/12/26 00:53:22;;;;;;;3.20;1.08;;;-5.90;93.80;;;;;;4228353;28;20047;-85
2021/12/26 00:55:27;;;;;;;2.15;1.15;;;-6.50;93.70;;;;;;4247797;28;20044;-85
2021/12/26 00:57:40;;;;;;;5.30;1.58;;;-6.00;93.80;;;;;;4229548;28;20075;-85
2021/12/26 00:59:46;;;;;;;4.63;1.30;;;-6.10;93.80;;;;;;4248391;28;20132;-85
2021/12/26 01:01:50;;;;;;;9.60;2.75;;;-7.30;93.50;;;;;;4228705;28;20108;-84
2021/12/26 01:03:57;;;;;;;2.38;1.17;;;-5.90;94.10;;;;;;4229841;28;20036;-84
2021/12/26 01:06:06;;;;;;;4.03;1.33;;;-6.90;94.00;;;;;;4229659;28;20070;-84
2021/12/26 01:08:13;;;;;;;2.95;1.17;;;-6.20;93.60;;;;;;4248027;28;20048;-84
2021/12/26 01:10:38;;;;;;;2.33;1.20;;;-6.10;93.60;;;;;;4248260;28;20062;-85
2021/12/26 01:12:45;;;;;;;2.30;1.40;;;-6.20;93.60;;;;;;4231219;28;20051;-85
2021/12/26 01:14:55;;;;;;;1.15;1.00;;;-5.50;93.80;;;;;;4232558;28;20059;-85
2021/12/26 01:17:20;;;;;;;2.05;1.05;;;-6.30;93.60;;;;;;4234959;28;20099;-85
2021/12/26 01:19:39;;;;;;;4.43;1.10;;;-6.30;93.50;;;;;;4251650;28;20031;-85
2021/12/26 01:21:47;;;;;;;4.97;1.40;;;-6.20;93.90;;;;;;4252942;27;20039;-85
2021/12/26 01:23:56;;;;;;;4.50;1.38;;;-6.30;93.60;;;;;;4215907;28;20037;-85
2021/12/26 01:25:59;;;;;;;2.85;1.23;;;-6.50;93.70;;;;;;4230781;28;20069;-85
2021/12/26 01:28:07;;;;;;;6.95;1.52;;;-6.40;93.60;;;;;;4231120;28;20048;-85
2021/12/26 01:30:29;;;;;;;2.47;1.77;;;-7.50;93.20;;;;;;4248104;28;20105;-85
2021/12/26 01:32:42;;;;;;;2.65;1.25;;;-6.40;93.70;;;;;;4230325;28;20297;-85
2021/12/26 01:34:58;;;;;;;5.45;1.50;;;-6.40;93.60;;;;;;4246788;28;20074;-85
2021/12/26 01:37:04;;;;;;;2.83;1.20;;;-6.10;93.10;;;;;;4229896;28;20075;-85
2021/12/26 01:39:15;;;;;;;4.75;1.73;;;-6.30;92.90;;;;;;4230216;28;20124;-85
2021/12/26 01:41:22;;;;;;;2.30;1.00;;;-6.20;92.90;;;;;;4229875;28;20047;-85
2021/12/26 01:43:30;;;;;;;2.45;1.00;;;-5.50;92.90;;;;;;4229612;28;20054;-85
2021/12/26 01:45:40;;;;;;;3.40;1.00;;;-5.00;93.00;;;;;;4229593;28;20036;-85
2021/12/26 01:47:46;;;;;;;5.07;1.48;;;-6.20;92.60;;;;;;4229534;28;20047;-85
2021/12/26 01:49:54;;;;;;;5.97;1.30;;;-6.40;92.60;;;;;;4229397;28;20112;-85
2021/12/26 01:52:07;;;;;;;2.13;0.88;;;-5.60;93.40;;;;;;4230075;28;20101;-85
2021/12/26 01:54:43;;;;;;;5.85;1.75;;;-6.20;92.60;;;;;;4230669;28;20131;-85
2021/12/26 01:56:51;;;;;;;3.58;1.20;;;-6.30;92.50;;;;;;4228460;28;20064;-85
2021/12/26 01:58:56;;;;;;;3.45;1.05;;;-7.10;92.90;;;;;;4242220;28;20039;-85
2021/12/26 02:01:05;;;;;;;2.55;1.30;;;-6.30;92.40;;;;;;4242889;28;20092;-85
2021/12/26 02:03:09;;;;;;;;;;;-6.30;92.70;;;;;;4225830;28;20510;-85
2021/12/26 02:05:14;;;;;;;2.45;0.85;;;-7.50;91.50;;;;;;4225709;28;19920;-85
2021/12/26 02:07:21;;;;;;;3.95;1.10;;;-6.80;92.20;;;;;;4223658;28;20048;-85
2021/12/26 02:09:24;;;;;;;3.08;1.10;;;-7.10;92.60;;;;;;4224478;28;20055;-85
2021/12/26 02:11:27;;;;;;;2.40;0.77;;;-4.60;92.80;;;;;;4241223;28;20055;-85
2021/12/26 02:13:38;;;;;;;1.17;0.82;;;-6.20;91.90;;;;;;4225130;28;20051;-84
2021/12/26 02:15:53;;;;;;;2.58;1.00;;;-5.20;92.50;;;;;;4241432;28;20047;-85
2021/12/26 02:18:05;;;;;;;3.67;1.17;;;-6.20;92.40;;;;;;4241437;28;20054;-85
2021/12/26 02:20:15;;;;;;;5.63;1.20;;;-6.20;92.30;;;;;;4225248;28;20094;-84
2021/12/26 02:22:29;;;;;;;4.47;1.15;;;-5.20;93.00;;;;;;4224550;28;20056;-84
2021/12/26 02:24:56;;;;;;;2.30;1.25;;;-6.30;92.50;;;;;;4225115;28;20040;-85
2021/12/26 02:29:20;;;;;;;2.00;0.82;;;-5.50;93.20;;;;;;4242331;28;20043;-85
2021/12/26 02:31:23;;;;;;;1.17;0.65;;;-6.70;93.00;;;;;;4225140;28;20044;-85
2021/12/26 02:33:27;;;;;;;3.25;1.15;;;-6.30;92.50;;;;;;4224315;28;20044;-85
2021/12/26 02:35:33;;;;;;;1.30;0.82;;;-6.30;92.50;;;;;;4224588;28;20221;-85
2021/12/26 02:37:36;;;;;;;1.90;0.70;;;-6.30;92.50;;;;;;4225552;28;20036;-84
2021/12/26 02:39:40;;;;;;;2.38;1.10;;;-6.20;92.60;;;;;;4244614;28;20082;-84
2021/12/26 02:41:43;;;;;;;4.47;1.30;;;-6.30;92.70;;;;;;4227381;28;20063;-85
2021/12/26 02:43:49;;;;;;;5.13;1.33;;;-5.80;93.10;;;;;;4226894;28;20052;-85
2021/12/26 02:45:52;;;;;;;2.50;1.05;;;-6.30;92.60;;;;;;4241904;28;20094;-86
2021/12/26 02:47:55;;;;;;;1.88;0.95;;;-5.70;93.20;;;;;;4243400;28;20048;-86
2021/12/26 02:50:01;;;;;;;2.85;0.98;;;-5.40;93.40;;;;;;4227145;28;20048;-85
2021/12/26 02:52:02;;;;;;;3.13;1.23;;;-5.50;92.90;;;;;;4226487;28;20052;-85
2021/12/26 02:54:09;;;;;;;5.00;1.25;;;-7.40;92.60;;;;;;4226993;28;20047;-85
2021/12/26 02:56:22;;;;;;;3.20;1.02;;;-5.90;93.40;;;;;;4227370;28;20076;-85
2021/12/26 02:58:25;;;;;;;1.70;0.82;;;-6.20;93.20;;;;;;4245463;28;20054;-85
2021/12/26 03:00:31;;;;;;;2.33;0.85;;;-6.30;93.00;;;;;;4233257;28;20113;-85
2021/12/26 03:02:34;;;;;;;2.00;1.13;;;-6.70;92.50;;;;;;4251232;27;20081;-85
2021/12/26 03:04:38;;;;;;;1.90;1.05;;;-6.30;92.70;;;;;;4241799;28;20050;-84
2021/12/26 03:06:56;;;;;;;1.35;0.70;;;-6.20;92.00;;;;;;4260751;27;20055;-84
2021/12/26 03:09:00;;;;;;;2.50;1.00;;;-6.10;92.40;;;;;;4261300;27;20098;-84
2021/12/26 03:11:05;;;;;;;5.03;0.95;;;-6.20;92.00;;;;;;4261000;27;20104;-84
2021/12/26 03:13:14;;;;;;;1.38;0.90;;;-6.20;91.90;;;;;;4261309;27;20053;-85
2021/12/26 03:15:18;;;;;;;1.85;0.90;;;-6.20;91.70;;;;;;4243983;28;20550;-85
2021/12/26 03:17:26;;;;;;;2.05;0.90;;;-6.20;91.70;;;;;;4242998;28;20063;-85
2021/12/26 03:19:33;;;;;;;2.47;1.02;;;-6.20;91.60;;;;;;4237156;28;20077;-84
2021/12/26 03:21:40;;;;;;;1.60;1.00;;;-7.30;91.50;;;;;;4242356;27;20044;-84
2021/12/26 03:23:44;;;;;;;1.35;0.68;;;-6.20;91.60;;;;;;4259951;27;20057;-84
2021/12/26 03:25:49;;;;;;;1.55;1.02;;;-6.30;91.40;;;;;;4243048;28;20051;-84
2021/12/26 03:28:00;;;;;;;4.55;0.80;;;-6.30;91.50;;;;;;4242712;28;20040;-84
2021/12/26 03:30:04;;;;;;;4.07;0.80;;;-6.20;91.60;;;;;;4259767;27;20043;-85
2021/12/26 03:32:06;;;;;;;2.08;0.85;;;-6.30;91.50;;;;;;4261179;27;20081;-85
2021/12/26 03:34:14;;;;;;;1.90;0.80;;;-6.40;91.70;;;;;;4243483;28;20039;-84
2021/12/26 03:36:16;;;;;;;1.75;0.70;;;-5.20;92.40;;;;;;4262275;27;20265;-85
2021/12/26 03:38:21;;;;;;;3.03;1.00;;;-6.30;92.00;;;;;;4246982;28;20074;-85
2021/12/26 03:40:24;;;;;;;2.03;0.85;;;-7.30;90.80;;;;;;4250770;28;20161;-85
2021/12/26 03:42:34;;;;;;;9.07;1.27;;;-6.30;91.20;;;;;;4244546;28;20040;-84
2021/12/26 03:44:42;;;;;;;1.55;0.80;;;-5.40;91.50;;;;;;4243994;28;20040;-85
2021/12/26 03:46:46;;;;;;;2.70;1.13;;;-7.20;91.10;;;;;;4227765;28;20043;-85
2021/12/26 03:48:52;;;;;;;3.63;0.75;;;-7.50;90.70;;;;;;4230602;28;20044;-85
2021/12/26 03:50:55;;;;;;;2.65;1.00;;;-6.30;91.20;;;;;;4234724;28;20020;-85
2021/12/26 03:53:04;;;;;;;3.22;1.02;;;-6.50;91.00;;;;;;4230729;28;20052;-85
2021/12/26 03:55:14;;;;;;;5.90;1.08;;;-6.30;91.20;;;;;;4226899;28;20140;-85
2021/12/26 03:57:21;;;;;;;2.83;0.68;;;-6.30;91.10;;;;;;4243523;28;20043;-85
2021/12/26 03:59:26;;;;;;;2.58;1.00;;;-6.40;91.20;;;;;;4226271;28;20078;-85
2021/12/26 04:01:30;;;;;;;2.60;0.68;;;-6.30;91.10;;;;;;4225884;28;20499;-85
2021/12/26 04:03:32;;;;;;;1.40;0.75;;;-6.40;91.20;;;;;;4226356;28;20040;-85
2021/12/26 04:05:37;;;;;;;1.83;1.10;;;-6.40;91.10;;;;;;4244109;28;20039;-85
2021/12/26 04:07:42;;;;;;;1.30;0.75;;;-6.40;91.20;;;;;;4225694;28;20044;-85
2021/12/26 04:09:44;;;;;;;1.17;0.65;;;-6.40;91.10;;;;;;4243711;28;20062;-85
2021/12/26 04:11:51;;;;;;;2.13;0.90;;;-5.40;92.20;;;;;;4226444;28;20039;-85
2021/12/26 04:14:00;;;;;;;1.75;0.80;;;-6.40;91.60;;;;;;4226780;28;20040;-85
2021/12/26 04:16:03;;;;;;;;;;;-6.70;91.20;;;;;;4241551;28;20135;-85
2021/12/26 04:18:07;;;;;;;0.90;0.60;;;-6.50;90.90;;;;;;4226784;28;19927;-84
2021/12/26 04:20:09;;;;;;;2.33;1.08;;;-6.50;91.20;;;;;;4244172;28;20047;-85
2021/12/26 04:22:17;;;;;;;2.22;0.93;;;-6.60;91.30;;;;;;4227363;28;20113;-85
2021/12/26 04:24:21;;;;;;;1.30;0.67;;;-7.30;91.00;;;;;;4226358;28;20044;-85
2021/12/26 04:26:25;;;;;;;3.50;0.93;;;-6.50;91.30;;;;;;4243618;28;20046;-85
2021/12/26 04:28:36;;;;;;;1.60;0.68;;;-6.80;91.50;;;;;;4226152;28;20116;-85
2021/12/26 04:30:39;;;;;;;1.77;0.95;;;-6.50;91.30;;;;;;4243690;28;20039;-85
2021/12/26 04:32:52;;;;;;;5.78;1.10;;;-6.60;91.30;;;;;;4243787;28;20043;-85
2021/12/26 04:34:56;;;;;;;3.28;1.05;;;-5.20;91.90;;;;;;4243190;28;20077;-85
2021/12/26 04:37:04;;;;;;;1.67;0.70;;;-6.30;91.60;;;;;;4225449;28;20050;-86
2021/12/26 04:39:07;;;;;;;3.87;0.77;;;-6.50;91.00;;;;;;4236530;28;20048;-85
2021/12/26 04:41:14;;;;;;;3.85;0.80;;;-6.50;91.20;;;;;;4259013;27;20293;-85
2021/12/26 04:43:24;;;;;;;1.63;0.93;;;-5.20;92.10;;;;;;4259925;27;20129;-85
2021/12/26 04:45:30;;;;;;;2.38;0.80;;;-7.30;90.80;;;;;;4264999;27;20058;-85
2021/12/26 04:47:33;;;;;;;4.18;1.08;;;-6.60;91.10;;;;;;4249662;28;20122;-84
2021/12/26 04:49:38;;;;;;;1.00;0.60;;;-6.60;91.10;;;;;;4244576;28;20437;-84
2021/12/26 04:51:45;;;;;;;2.20;1.10;;;-6.60;91.20;;;;;;4244067;28;20047;-84
2021/12/26 04:53:48;;;;;;;1.40;0.60;;;-6.60;91.00;;;;;;4236355;28;20120;-84
2021/12/26 04:55:52;;;;;;;5.07;0.90;;;-6.60;90.80;;;;;;4244800;27;20048;-84
2021/12/26 04:58:01;;;;;;;1.42;0.68;;;-6.60;90.80;;;;;;4243730;28;20040;-84
2021/12/26 05:00:08;;;;;;;1.80;0.57;;;-6.50;90.90;;;;;;4242415;28;20505;-85
2021/12/26 05:02:12;;;;;;;2.50;0.65;;;-6.60;91.00;;;;;;4226478;28;20044;-85
2021/12/26 05:04:25;;;;;;;1.67;0.80;;;-6.50;90.80;;;;;;4225605;28;20059;-85
2021/12/26 05:06:31;;;;;;;1.45;0.75;;;-7.70;90.60;;;;;;4243169;28;20102;-85
2021/12/26 05:08:39;;;;;;;1.60;0.85;;;-6.60;91.10;;;;;;4226938;28;20051;-84
2021/12/26 05:10:41;;;;;;;1.92;0.77;;;-6.60;90.80;;;;;;4225889;28;20168;-85
2021/12/26 05:12:51;;;;;;;1.23;0.88;;;-6.40;91.00;;;;;;4242924;28;20057;-85
2021/12/26 05:14:55;;;;;;;2.88;0.90;;;-5.80;91.40;;;;;;4225849;28;20181;-85
2021/12/26 05:16:56;;;;;;;3.17;0.90;;;-6.40;90.90;;;;;;4243510;28;20051;-85
2021/12/26 05:19:03;;;;;;;2.17;0.80;;;-6.20;91.20;;;;;;4243298;28;20044;-85
2021/12/26 05:21:06;;;;;;;1.67;0.63;;;-6.60;90.60;;;;;;4226896;28;20528;-85
2021/12/26 05:23:10;;;;;;;1.13;0.68;;;-6.60;90.60;;;;;;4227512;28;20044;-85
2021/12/26 05:25:18;;;;;;;1.58;0.70;;;-7.50;90.50;;;;;;4227149;28;20043;-84
2021/12/26 05:27:24;;;;;;;2.38;0.90;;;-6.20;91.20;;;;;;4244423;28;20070;-85
2021/12/26 05:29:26;;;;;;;1.27;0.77;;;-6.60;90.80;;;;;;4244951;28;20043;-85
2021/12/26 05:31:27;;;;;;;1.77;0.77;;;-6.10;91.20;;;;;;4225716;28;20055;-85
2021/12/26 05:33:39;;;;;;;1.15;0.68;;;-6.70;91.40;;;;;;4227731;28;20521;-85
2021/12/26 05:35:48;;;;;;;1.63;0.90;;;-7.80;90.70;;;;;;4245792;28;20515;-84
2021/12/26 05:37:53;;;;;;;1.90;1.08;;;-6.70;91.10;;;;;;4224668;28;20139;-84
2021/12/26 05:39:57;;;;;;;1.63;0.73;;;-6.70;91.20;;;;;;4227313;28;20086;-84
2021/12/26 05:42:01;;;;;;;1.63;0.70;;;-6.80;91.20;;;;;;4207930;28;20487;-85
2021/12/26 05:44:02;;;;;;;1.30;0.55;;;-7.40;91.10;;;;;;4210443;28;20048;-85
2021/12/26 05:46:04;;;;;;;3.05;1.10;;;-6.80;91.40;;;;;;4225559;28;20048;-85
2021/12/26 05:48:11;;;;;;;1.20;0.60;;;-5.90;91.50;;;;;;4206453;28;20600;-84
2021/12/26 05:50:18;;;;;;;6.97;0.75;;;-6.80;91.70;;;;;;4208830;28;20048;-84
2021/12/26 05:52:26;;;;;;;3.05;0.73;;;-6.80;91.00;;;;;;4224907;28;20047;-85
2021/12/26 05:54:27;;;;;;;1.43;0.70;;;-5.40;91.60;;;;;;4208694;28;20082;-85
2021/12/26 05:56:32;;;;;;;1.92;1.05;;;-6.70;91.10;;;;;;4209124;28;20393;-85
2021/12/26 05:58:43;;;;;;;3.50;0.80;;;-6.70;91.30;;;;;;4208172;28;20131;-85
2021/12/26 06:00:45;;;;;;;1.40;0.47;;;-6.80;90.50;;;;;;4207989;28;20107;-85
2021/12/26 06:02:55;;;;;;;2.03;0.85;;;-6.60;90.90;;;;;;4224748;28;20046;-84
2021/12/26 06:04:59;;;;;;;3.05;0.98;;;-6.60;90.40;;;;;;4226050;28;20047;-84
2021/12/26 06:07:04;;;;;;;2.00;0.60;;;-6.60;90.40;;;;;;4209270;28;20079;-84
2021/12/26 06:09:12;;;;;;;2.75;0.90;;;-6.60;90.50;;;;;;4225529;28;20085;-84
2021/12/26 06:11:14;;;;;;;2.80;1.00;;;-7.70;90.30;;;;;;4225168;28;20056;-84
2021/12/26 06:13:15;;;;;;;1.42;0.70;;;-5.30;91.20;;;;;;4222645;28;20044;-85
2021/12/26 06:15:17;;;;;;;1.58;0.70;;;-6.60;91.00;;;;;;4225066;28;20040;-85
2021/12/26 06:17:21;;;;;;;2.40;1.10;;;-6.50;90.80;;;;;;4211862;28;20039;-87
2021/12/26 06:19:25;;;;;;;1.92;1.10;;;-7.60;90.30;;;;;;4216299;28;20051;-86
2021/12/26 06:21:36;;;;;;;1.17;0.60;;;-6.60;90.00;;;;;;4212293;28;20543;-85
2021/12/26 06:23:37;;;;;;;2.65;1.23;;;-6.60;90.40;;;;;;4227387;28;20052;-85
2021/12/26 06:25:41;;;;;;;3.22;1.00;;;-6.70;91.10;;;;;;4210830;28;20040;-85
2021/12/26 06:27:46;;;;;;;3.15;0.85;;;-6.60;90.10;;;;;;4208264;28;20051;-85
2021/12/26 06:30:06;;;;;;;2.08;0.98;;;-6.00;90.90;;;;;;4225555;28;20055;-85
2021/12/26 06:32:10;;;;;;;1.83;0.70;;;-6.70;90.60;;;;;;4210134;28;20416;-85
2021/12/26 06:34:21;;;;;;;1.67;0.70;;;-6.60;90.00;;;;;;4208878;28;20048;-86
2021/12/26 06:36:26;;;;;;;6.30;0.90;;;-6.50;89.70;;;;;;4225230;28;20074;-85
2021/12/26 06:38:31;;;;;;;5.32;1.05;;;-6.50;89.90;;;;;;4230591;28;20154;-85
2021/12/26 06:40:39;;;;;;;1.70;0.93;;;-5.40;90.70;;;;;;4241978;28;20092;-85
2021/12/26 06:42:45;;;;;;;1.73;0.80;;;-6.30;90.10;;;;;;4229407;28;20516;-85
2021/12/26 06:44:51;;;;;;;1.58;0.98;;;-7.20;89.50;;;;;;4242091;28;20067;-84
2021/12/26 06:46:55;;;;;;;4.60;1.00;;;-5.10;90.50;;;;;;4243654;28;20047;-85
2021/12/26 06:49:09;;;;;;;7.00;0.73;;;-6.60;89.60;;;;;;4252974;28;20032;-85
2021/12/26 06:51:13;;;;;;;0.98;0.73;;;-6.60;89.50;;;;;;4241735;28;20047;-84
2021/12/26 06:53:17;;;;;;;0.95;0.70;;;-7.80;89.40;;;;;;4241095;28;20048;-84
2021/12/26 06:55:21;;;;;;;2.45;1.00;;;-6.60;90.10;;;;;;4235435;28;20516;-84
2021/12/26 06:57:30;;;;;;;3.17;1.00;;;-6.60;90.10;;;;;;4241309;28;20095;-84
2021/12/26 06:59:38;;;;;;;1.52;1.05;;;-6.50;90.10;;;;;;4242119;28;20031;-85
2021/12/26 07:01:40;;;;;;;2.72;1.20;;;-6.60;89.80;;;;;;4237768;28;20047;-85
2021/12/26 07:03:48;;;;;;;4.40;1.52;;;-5.70;90.80;;;;;;4258108;28;20039;-85
2021/12/26 07:05:53;;;;;;;3.72;1.33;;;-6.60;90.00;;;;;;4241391;28;20039;-85
2021/12/26 07:07:57;;;;;;;2.08;1.00;;;-7.50;90.40;;;;;;4256697;28;20039;-84
2021/12/26 07:10:00;;;;;;;2.30;1.70;;;-6.70;89.60;;;;;;4260663;27;20121;-84
2021/12/26 07:12:02;;;;;;;3.17;1.08;;;-6.60;89.40;;;;;;4233775;28;20074;-84
2021/12/26 07:14:06;;;;;;;2.03;1.20;;;-7.50;90.00;;;;;;4250665;28;20068;-85
2021/12/26 07:16:16;;;;;;;2.88;1.15;;;-6.70;89.40;;;;;;4247880;28;20050;-84
2021/12/26 07:18:27;;;;;;;5.13;1.42;;;-5.70;90.10;;;;;;4255253;28;20043;-84
2021/12/26 07:20:39;;;;;;;1.48;1.00;;;-7.60;88.80;;;;;;4248557;28;20056;-84
2021/12/26 07:22:49;;;;;;;2.42;1.15;;;-6.50;89.70;;;;;;4264671;28;20077;-84
2021/12/26 07:24:53;;;;;;;2.92;1.10;;;-6.70;89.40;;;;;;4266493;27;20484;-84
2021/12/26 07:26:55;;;;;;;3.28;1.30;;;-6.60;89.60;;;;;;4266338;27;20050;-84
2021/12/26 07:29:08;;;;;;;4.50;1.80;;;-7.90;89.90;;;;;;4247158;28;20445;-85
2021/12/26 07:31:13;;;;;;;2.75;1.42;;;-6.60;89.80;;;;;;4250340;28;20043;-85
2021/12/26 07:33:25;;;;;;;3.97;1.40;;;-7.10;89.40;;;;;;4250429;28;20071;-84
2021/12/26 07:35:29;;;;;;;6.65;1.35;;;-6.60;89.50;;;;;;4234545;28;20051;-84
2021/12/26 07:37:35;;;;;;;2.55;1.40;;;-6.70;89.80;;;;;;4231332;28;20048;-85
2021/12/26 07:39:43;;;;;;;3.75;1.40;;;-6.70;90.10;;;;;;4246990;28;20059;-84
2021/12/26 07:41:56;;;;;;;4.03;1.33;;;-7.70;88.50;;;;;;4247460;28;20055;-84
2021/12/26 07:43:57;;;;;;;6.55;1.20;;;-7.00;90.60;;;;;;4234100;28;20081;-84
2021/12/26 07:46:11;;;;;;;3.90;1.23;;;-5.50;90.40;;;;;;4232167;28;20100;-84
2021/12/26 07:48:25;;;;;;;6.93;1.27;;;-6.70;89.40;;;;;;4249804;28;20050;-84
2021/12/26 07:50:37;;;;;;;1.95;1.15;;;-6.70;89.70;;;;;;4231323;28;20067;-84
2021/12/26 07:52:48;;;;;;;3.63;1.58;;;-6.50;89.20;;;;;;4247488;28;20044;-85
2021/12/26 07:55:13;;;;;;;4.75;1.50;;;-5.50;90.00;;;;;;4230633;28;20094;-85
2021/12/26 07:57:18;;;;;;;3.05;1.20;;;-6.70;89.60;;;;;;4231121;28;20567;-85
2021/12/26 07:59:22;;;;;;;3.63;1.70;;;-6.80;89.30;;;;;;4247024;28;20069;-84
2021/12/26 08:01:33;;;;;;;3.10;1.63;;;-6.60;88.70;;;;;;4247150;28;20052;-84
2021/12/26 08:03:37;;;;;;;2.78;1.40;;;-6.70;90.20;;;;;;4222720;28;20040;-84
2021/12/26 08:05:41;;;;;;;3.33;1.70;;;-6.70;88.40;;;;;;4261269;27;20051;-85
2021/12/26 08:07:44;;;;;;;3.28;1.83;;;-6.70;88.90;;;;;;4246854;28;20043;-85
2021/12/26 08:09:56;;;;;;;3.17;1.33;;;-6.70;88.70;;;;;;4238128;28;20096;-84
2021/12/26 08:12:09;;;;;;;3.85;1.58;;;-6.60;88.90;;;;;;4233839;28;20028;-85
2021/12/26 08:14:19;;;;;;;3.55;1.33;;;-5.40;89.70;;;;;;4243767;27;20048;-85
2021/12/26 08:16:28;;;;;;;4.82;1.70;;;-6.50;90.20;;;;;;4247727;28;20045;-83
2021/12/26 08:18:43;;;;;;;5.38;2.17;;;-7.00;88.30;;;;;;4282880;27;20050;-84
2021/12/26 08:20:50;;;;;;;3.78;1.48;;;-6.50;89.50;;;;;;4234333;28;20066;-86
2021/12/26 08:22:57;;;;;;;7.35;2.05;;;-6.60;88.70;;;;;;4244794;28;20051;-85
2021/12/26 08:25:00;;;;;;;3.67;1.50;;;-6.50;90.30;;;;;;4263518;27;20047;-84
2021/12/26 08:27:17;;;;;;;4.03;1.58;;;-6.50;90.10;;;;;;4233628;28;20036;-84
2021/12/26 08:29:34;;;;;;;3.92;1.88;;;-7.50;89.10;;;;;;4228860;28;20185;-84
2021/12/26 08:31:43;;;;;;;2.80;1.77;;;-6.40;88.60;;;;;;4246782;27;20085;-85
2021/12/26 08:33:45;;;;;;;3.92;1.60;;;-6.20;88.70;;;;;;4246707;27;20036;-85
2021/12/26 08:35:50;;;;;;;4.57;1.42;;;-5.90;88.40;;;;;;4238926;28;20222;-85
2021/12/26 08:37:53;;;;;;;3.13;1.40;;;-5.80;87.90;;;;;;4231207;28;20036;-84
2021/12/26 08:39:57;;;;;;;8.52;1.80;;;-5.60;87.40;;;;;;4264688;27;20047;-84
2021/12/26 08:41:58;;;;;;;5.22;2.17;;;-5.50;87.00;;;;;;4245075;28;20044;-84
2021/12/26 08:44:07;;;;;;;4.50;1.92;;;-5.00;86.90;;;;;;4228111;28;20043;-85
2021/12/26 08:46:11;;;;;;;2.42;1.58;;;-5.30;85.70;;;;;;4231811;28;20048;-85
2021/12/26 08:48:16;;;;;;;3.33;1.40;;;-5.20;86.10;;;;;;4233230;28;20050;-86
2021/12/26 08:50:21;;;;;;;4.22;1.40;;;-4.20;86.40;;;;;;4227917;28;20476;-83
2021/12/26 08:52:23;;;;;;;3.88;1.88;;;-4.70;85.70;;;;;;4244217;28;20457;-83
2021/12/26 08:54:28;;;;;;;5.13;2.17;;;-4.40;85.50;;;;;;4244981;28;20051;-83
2021/12/26 08:56:34;;;;;;;3.47;1.60;;;-4.10;84.00;;;;;;4230445;28;20044;-84
2021/12/26 08:58:41;;;;;;;4.70;1.75;;;-3.70;83.30;;;;;;4230800;28;20048;-83
2021/12/26 09:00:50;;;;;;;3.75;2.33;;;-3.20;82.60;;;;;;4244053;28;20088;-84
2021/12/26 09:02:53;;;;;;;4.82;1.60;;;-2.70;79.40;;;;;;4246870;28;20039;-84
2021/12/26 09:04:55;;;;;;;3.42;1.85;;;-2.30;80.80;;;;;;4252439;27;20082;-85
2021/12/26 09:06:59;;;;;;;3.72;1.70;;;-1.80;80.20;;;;;;4247345;27;20102;-84
2021/12/26 09:09:11;;;;;;;3.67;1.35;;;-1.60;79.50;;;;;;4240126;28;20081;-83
2021/12/26 09:11:16;;;;;;;4.15;1.50;;;-2.40;76.30;;;;;;4256756;27;20039;-83
2021/12/26 09:13:19;;;;;;;3.63;1.60;;;-0.60;75.00;;;;;;4251672;27;20098;-84
2021/12/26 09:15:21;;;;;;;2.80;1.30;;;0.70;75.60;;;;;;4238229;28;20047;-84
2021/12/26 09:17:23;;;;;;;3.92;1.60;;;0.90;70.00;;;;;;4218918;28;20070;-85
2021/12/26 09:19:27;;;;;;;2.33;1.58;;;2.20;67.60;;;;;;4245945;27;20131;-84
2021/12/26 09:21:29;;;;;;;4.47;1.60;;;1.60;68.20;;;;;;4234188;27;20097;-84
2021/12/26 09:23:29;;;;;;;6.28;1.70;;;3.50;69.40;;;;;;4216616;28;20405;-84
2021/12/26 09:25:31;;;;;;;2.85;1.50;;;2.60;67.20;;;;;;4237582;27;20133;-84
2021/12/26 09:27:33;;;;;;;3.95;1.83;;;3.10;65.90;;;;;;4221062;28;20087;-84
2021/12/26 09:29:36;;;;;;;7.50;1.85;;;4.40;61.10;;;;;;4237090;28;20043;-85
2021/12/26 09:31:38;;;;;;;2.85;1.52;;;3.10;59.50;;;;;;4236564;28;20070;-85
2021/12/26 09:33:40;;;;;;;4.10;1.52;;;3.10;62.00;;;;;;4232278;28;20036;-85
2021/12/26 09:35:42;;;;;;;3.13;1.48;;;3.10;61.80;;;;;;4219125;28;20043;-85
2021/12/26 09:37:45;;;;;;;4.05;1.70;;;2.60;62.10;;;;;;4236767;28;20053;-85
2021/12/26 09:39:48;;;;;;;2.38;1.05;;;3.40;63.70;;;;;;4221133;28;20052;-85
2021/12/26 09:41:51;;;;;;;3.55;1.33;;;3.40;62.70;;;;;;4218844;28;20522;-85
2021/12/26 09:43:55;;;;;;;3.30;1.60;;;3.50;62.80;;;;;;4234855;28;20045;-85
2021/12/26 09:46:03;;;;;;;3.70;1.13;;;3.30;64.20;;;;;;4220886;28;20072;-84
2021/12/26 09:48:04;;;;;;;3.60;1.52;;;3.10;63.80;;;;;;4222118;28;20449;-85
2021/12/26 09:50:09;;;;;;;5.65;2.47;;;2.80;66.30;;;;;;4220031;28;20123;-85
2021/12/26 09:52:12;;;;;;;3.45;1.65;;;2.70;66.30;;;;;;4203258;28;20187;-85
2021/12/26 09:54:14;;;;;;;3.95;1.60;;;3.20;68.50;;;;;;4203857;28;20051;-85
2021/12/26 09:56:16;;;;;;;2.15;1.50;;;2.30;69.00;;;;;;4204093;28;20029;-85
2021/12/26 09:58:18;;;;;;;3.55;1.33;;;1.90;68.60;;;;;;4219657;28;20051;-85
2021/12/26 10:00:30;;;;;;;4.38;1.85;;;3.40;70.30;;;;;;4203517;28;20048;-85
2021/12/26 10:02:34;;;;;;;4.75;1.90;;;3.30;68.40;;;;;;4220986;28;20482;-85
2021/12/26 10:04:35;;;;;;;3.47;1.55;;;1.60;69.50;;;;;;4221571;28;20052;-85
2021/12/26 10:06:38;;;;;;;3.72;2.13;;;1.30;72.50;;;;;;4215890;28;20097;-83
2021/12/26 10:09:09;;;;;;;3.15;1.55;;;2.40;75.00;;;;;;4208505;28;20484;-84
2021/12/26 10:11:14;;;;;;;3.50;1.63;;;1.00;69.90;;;;;;4197076;28;20429;-83
2021/12/26 10:13:48;;;;;;;3.20;1.60;;;0.90;69.30;;;;;;4214189;28;20055;-83
2021/12/26 10:15:49;;;;;;;6.22;1.58;;;1.10;67.00;;;;;;4217882;28;20397;-84
2021/12/26 10:17:51;;;;;;;3.65;1.90;;;1.10;75.90;;;;;;4216861;28;20040;-84
2021/12/26 10:20:00;;;;;;;4.93;2.10;;;1.00;74.60;;;;;;4215245;28;20043;-84
2021/12/26 10:22:03;;;;;;;4.45;1.60;;;0.90;70.50;;;;;;4215276;28;20055;-84
2021/12/26 10:24:19;;;;;;;3.85;1.23;;;1.00;73.80;;;;;;4223029;28;20040;-84
2021/12/26 10:26:28;;;;;;;3.70;2.30;;;2.40;69.10;;;;;;4214061;28;20093;-85
2021/12/26 10:28:29;;;;;;;3.42;1.50;;;2.70;74.10;;;;;;4228556;28;20415;-83
2021/12/26 10:30:42;;;;;;;6.75;1.83;;;2.00;72.50;;;;;;4216433;28;20036;-85
2021/12/26 10:32:43;;;;;;;3.50;1.73;;;2.20;72.90;;;;;;4222054;28;20048;-87
2021/12/26 10:34:48;;;;;;;3.05;1.63;;;1.60;74.30;;;;;;4218442;28;20057;-86
2021/12/26 10:36:52;;;;;;;3.03;1.65;;;3.00;75.30;;;;;;4217308;28;20588;-83
2021/12/26 10:39:22;;;;;;;3.85;1.63;;;1.70;74.10;;;;;;4204665;28;20520;-85
2021/12/26 10:41:24;;;;;;;4.57;1.75;;;1.90;61.50;;;;;;4228641;28;20495;-82
2021/12/26 10:43:55;;;;;;;3.05;1.42;;;2.30;72.00;;;;;;4241556;28;20048;-83
2021/12/26 10:46:19;;;;;;;2.45;1.60;;;1.70;70.30;;;;;;4230596;28;20039;-84
2021/12/26 10:48:24;;;;;;;3.97;1.80;;;1.80;70.50;;;;;;4240777;28;20104;-83
2021/12/26 10:50:28;;;;;;;4.90;2.00;;;2.40;70.60;;;;;;4229474;28;20047;-84
2021/12/26 10:52:39;;;;;;;4.82;2.42;;;3.50;73.10;;;;;;4232937;28;20043;-83
2021/12/26 10:54:44;;;;;;;4.35;1.65;;;2.10;71.80;;;;;;4247933;27;20041;-85
2021/12/26 10:57:13;;;;;;;3.72;1.77;;;3.00;72.80;;;;;;4249018;27;20050;-86
2021/12/26 10:59:20;;;;;;;3.67;1.63;;;2.20;62.50;;;;;;4230612;28;20059;-84
2021/12/26 11:01:21;;;;;;;5.68;1.92;;;2.30;69.70;;;;;;4250181;27;20043;-84
2021/12/26 11:03:26;;;;;;;3.03;1.85;;;3.90;67.60;;;;;;4250375;27;20130;-83